sensor_id;sensor_type;location;lat;lon;timestamp;temperature;humidity
10903;DHT22;5504;47.312;11.060;2022-08-21T00:00:53;17.50;99.10
10903;DHT22;5504;47.312;11.060;2022-08-21T00:03:18;17.50;99.40
10903;DHT22;5504;47.312;11.060;2022-08-21T00:05:48;17.50;99.20
10903;DHT22;5504;47.312;11.060;2022-08-21T00:08:19;17.50;99.20
10903;DHT22;5504;47.312;11.060;2022-08-21T00:10:45;17.50;98.90
10903;DHT22;5504;47.312;11.060;2022-08-21T00:13:12;17.30;98.80
10903;DHT22;5504;47.312;11.060;2022-08-21T00:15:40;17.30;99.10
10903;DHT22;5504;47.312;11.060;2022-08-21T00:18:07;17.30;99.40
10903;DHT22;5504;47.312;11.060;2022-08-21T00:20:34;17.20;99.60
10903;DHT22;5504;47.312;11.060;2022-08-21T00:23:00;17.20;99.90
10903;DHT22;5504;47.312;11.060;2022-08-21T00:25:26;17.20;99.80
10903;DHT22;5504;47.312;11.060;2022-08-21T00:27:53;17.20;99.70
10903;DHT22;5504;47.312;11.060;2022-08-21T00:30:21;17.10;99.20
10903;DHT22;5504;47.312;11.060;2022-08-21T00:32:47;17.00;99.40
10903;DHT22;5504;47.312;11.060;2022-08-21T00:35:15;17.10;99.80
10903;DHT22;5504;47.312;11.060;2022-08-21T00:37:42;17.10;99.90
10903;DHT22;5504;47.312;11.060;2022-08-21T00:40:12;17.00;99.70
10903;DHT22;5504;47.312;11.060;2022-08-21T00:42:38;17.00;99.80
10903;DHT22;5504;47.312;11.060;2022-08-21T00:45:05;17.10;99.60
10903;DHT22;5504;47.312;11.060;2022-08-21T00:47:31;17.00;99.20
10903;DHT22;5504;47.312;11.060;2022-08-21T00:49:56;16.80;99.10
10903;DHT22;5504;47.312;11.060;2022-08-21T00:52:27;16.70;99.40
10903;DHT22;5504;47.312;11.060;2022-08-21T00:54:54;16.70;99.50
10903;DHT22;5504;47.312;11.060;2022-08-21T00:57:29;16.80;99.90
10903;DHT22;5504;47.312;11.060;2022-08-21T00:59:57;16.80;99.40
10903;DHT22;5504;47.312;11.060;2022-08-21T01:02:24;16.80;99.50
10903;DHT22;5504;47.312;11.060;2022-08-21T01:04:50;16.80;99.30
10903;DHT22;5504;47.312;11.060;2022-08-21T01:07:16;16.80;99.20
10903;DHT22;5504;47.312;11.060;2022-08-21T01:09:43;16.80;99.20
10903;DHT22;5504;47.312;11.060;2022-08-21T01:12:09;16.70;99.20
10903;DHT22;5504;47.312;11.060;2022-08-21T01:14:36;16.60;99.20
10903;DHT22;5504;47.312;11.060;2022-08-21T01:17:03;16.60;99.40
10903;DHT22;5504;47.312;11.060;2022-08-21T01:19:29;16.60;99.40
10903;DHT22;5504;47.312;11.060;2022-08-21T01:21:55;16.50;99.40
10903;DHT22;5504;47.312;11.060;2022-08-21T01:24:22;16.60;99.50
10903;DHT22;5504;47.312;11.060;2022-08-21T01:26:49;16.60;99.60
10903;DHT22;5504;47.312;11.060;2022-08-21T01:29:36;16.60;99.60
10903;DHT22;5504;47.312;11.060;2022-08-21T01:32:06;16.60;99.60
10903;DHT22;5504;47.312;11.060;2022-08-21T01:34:34;16.70;99.70
10903;DHT22;5504;47.312;11.060;2022-08-21T01:37:01;16.60;99.60
10903;DHT22;5504;47.312;11.060;2022-08-21T01:39:26;16.60;99.80
10903;DHT22;5504;47.312;11.060;2022-08-21T01:41:52;16.70;99.90
10903;DHT22;5504;47.312;11.060;2022-08-21T01:44:21;16.80;99.90
10903;DHT22;5504;47.312;11.060;2022-08-21T01:46:47;16.80;99.90
10903;DHT22;5504;47.312;11.060;2022-08-21T01:49:14;16.80;99.80
10903;DHT22;5504;47.312;11.060;2022-08-21T01:51:40;16.80;99.70
10903;DHT22;5504;47.312;11.060;2022-08-21T01:54:06;16.80;99.90
10903;DHT22;5504;47.312;11.060;2022-08-21T01:56:41;16.90;99.90
10903;DHT22;5504;47.312;11.060;2022-08-21T01:59:07;16.90;99.90
10903;DHT22;5504;47.312;11.060;2022-08-21T02:01:33;16.80;99.90
10903;DHT22;5504;47.312;11.060;2022-08-21T02:03:59;17.00;99.90
10903;DHT22;5504;47.312;11.060;2022-08-21T02:06:26;17.00;99.90
10903;DHT22;5504;47.312;11.060;2022-08-21T02:08:52;17.00;99.90
10903;DHT22;5504;47.312;11.060;2022-08-21T02:11:18;17.10;99.90
10903;DHT22;5504;47.312;11.060;2022-08-21T02:13:43;17.10;99.90
10903;DHT22;5504;47.312;11.060;2022-08-21T02:16:10;17.10;99.90
10903;DHT22;5504;47.312;11.060;2022-08-21T02:18:36;17.10;99.90
10903;DHT22;5504;47.312;11.060;2022-08-21T02:21:03;17.00;99.80
10903;DHT22;5504;47.312;11.060;2022-08-21T02:23:29;17.00;99.90
10903;DHT22;5504;47.312;11.060;2022-08-21T02:25:57;17.10;99.90
10903;DHT22;5504;47.312;11.060;2022-08-21T02:28:23;17.00;99.90
10903;DHT22;5504;47.312;11.060;2022-08-21T02:30:50;17.00;99.90
10903;DHT22;5504;47.312;11.060;2022-08-21T02:33:16;16.90;99.90
10903;DHT22;5504;47.312;11.060;2022-08-21T02:35:44;17.00;99.90
10903;DHT22;5504;47.312;11.060;2022-08-21T02:38:13;17.00;99.90
10903;DHT22;5504;47.312;11.060;2022-08-21T02:40:41;17.10;99.90
10903;DHT22;5504;47.312;11.060;2022-08-21T02:43:07;17.20;99.90
10903;DHT22;5504;47.312;11.060;2022-08-21T02:45:33;17.20;99.90
10903;DHT22;5504;47.312;11.060;2022-08-21T02:48:06;17.10;99.90
10903;DHT22;5504;47.312;11.060;2022-08-21T02:50:35;17.00;99.90
10903;DHT22;5504;47.312;11.060;2022-08-21T02:53:02;17.10;99.90
10903;DHT22;5504;47.312;11.060;2022-08-21T02:55:30;17.20;99.90
10903;DHT22;5504;47.312;11.060;2022-08-21T02:57:58;17.20;99.90
10903;DHT22;5504;47.312;11.060;2022-08-21T03:00:26;17.20;99.90
10903;DHT22;5504;47.312;11.060;2022-08-21T03:02:53;17.30;99.90
10903;DHT22;5504;47.312;11.060;2022-08-21T03:05:22;17.40;99.90
10903;DHT22;5504;47.312;11.060;2022-08-21T03:07:48;17.40;99.90
10903;DHT22;5504;47.312;11.060;2022-08-21T03:10:15;17.30;99.90
10903;DHT22;5504;47.312;11.060;2022-08-21T03:12:41;17.30;99.90
10903;DHT22;5504;47.312;11.060;2022-08-21T03:15:14;17.30;99.90
10903;DHT22;5504;47.312;11.060;2022-08-21T03:17:40;17.40;99.90
10903;DHT22;5504;47.312;11.060;2022-08-21T03:20:07;17.40;99.90
10903;DHT22;5504;47.312;11.060;2022-08-21T03:22:33;17.40;99.90
10903;DHT22;5504;47.312;11.060;2022-08-21T03:25:00;17.30;99.70
10903;DHT22;5504;47.312;11.060;2022-08-21T03:27:28;17.20;99.40
10903;DHT22;5504;47.312;11.060;2022-08-21T03:29:54;17.20;99.40
10903;DHT22;5504;47.312;11.060;2022-08-21T03:32:21;17.10;99.40
10903;DHT22;5504;47.312;11.060;2022-08-21T03:34:47;17.00;99.40
10903;DHT22;5504;47.312;11.060;2022-08-21T03:37:13;16.90;99.60
10903;DHT22;5504;47.312;11.060;2022-08-21T03:39:39;16.90;99.70
10903;DHT22;5504;47.312;11.060;2022-08-21T03:42:05;16.80;99.40
10903;DHT22;5504;47.312;11.060;2022-08-21T03:44:31;16.80;99.40
10903;DHT22;5504;47.312;11.060;2022-08-21T03:46:58;16.80;99.30
10903;DHT22;5504;47.312;11.060;2022-08-21T03:49:25;16.70;99.20
10903;DHT22;5504;47.312;11.060;2022-08-21T03:51:51;16.50;99.40
10903;DHT22;5504;47.312;11.060;2022-08-21T03:54:17;16.50;99.80
10903;DHT22;5504;47.312;11.060;2022-08-21T03:56:42;16.50;99.90
10903;DHT22;5504;47.312;11.060;2022-08-21T03:59:08;16.60;99.90
10903;DHT22;5504;47.312;11.060;2022-08-21T04:01:34;16.50;99.80
10903;DHT22;5504;47.312;11.060;2022-08-21T04:04:02;16.50;99.90
10903;DHT22;5504;47.312;11.060;2022-08-21T04:06:27;16.50;99.60
10903;DHT22;5504;47.312;11.060;2022-08-21T04:08:53;16.50;99.70
10903;DHT22;5504;47.312;11.060;2022-08-21T04:11:19;16.50;99.60
10903;DHT22;5504;47.312;11.060;2022-08-21T04:13:45;16.50;99.50
10903;DHT22;5504;47.312;11.060;2022-08-21T04:16:12;16.40;99.30
10903;DHT22;5504;47.312;11.060;2022-08-21T04:18:38;16.40;99.50
10903;DHT22;5504;47.312;11.060;2022-08-21T04:21:04;16.30;99.70
10903;DHT22;5504;47.312;11.060;2022-08-21T04:23:31;16.40;99.90
10903;DHT22;5504;47.312;11.060;2022-08-21T04:25:57;16.50;99.90
10903;DHT22;5504;47.312;11.060;2022-08-21T04:28:24;16.50;99.90
10903;DHT22;5504;47.312;11.060;2022-08-21T04:30:53;16.50;99.90
10903;DHT22;5504;47.312;11.060;2022-08-21T04:33:21;16.50;99.90
10903;DHT22;5504;47.312;11.060;2022-08-21T04:35:47;16.40;99.60
10903;DHT22;5504;47.312;11.060;2022-08-21T04:38:14;16.40;99.80
10903;DHT22;5504;47.312;11.060;2022-08-21T04:40:40;16.40;99.90
10903;DHT22;5504;47.312;11.060;2022-08-21T04:43:07;16.40;99.80
10903;DHT22;5504;47.312;11.060;2022-08-21T04:45:39;16.40;99.60
10903;DHT22;5504;47.312;11.060;2022-08-21T04:48:07;16.40;99.70
10903;DHT22;5504;47.312;11.060;2022-08-21T04:50:52;16.40;99.50
10903;DHT22;5504;47.312;11.060;2022-08-21T04:53:43;16.40;99.40
10903;DHT22;5504;47.312;11.060;2022-08-21T04:56:14;16.40;99.50
10903;DHT22;5504;47.312;11.060;2022-08-21T04:58:41;16.40;99.50
10903;DHT22;5504;47.312;11.060;2022-08-21T05:01:14;16.40;99.60
10903;DHT22;5504;47.312;11.060;2022-08-21T05:03:42;16.40;99.50
10903;DHT22;5504;47.312;11.060;2022-08-21T05:06:10;16.40;99.80
10903;DHT22;5504;47.312;11.060;2022-08-21T05:08:38;16.40;99.80
10903;DHT22;5504;47.312;11.060;2022-08-21T05:11:05;16.40;99.90
10903;DHT22;5504;47.312;11.060;2022-08-21T05:13:31;16.50;99.80
10903;DHT22;5504;47.312;11.060;2022-08-21T05:15:57;16.50;99.40
10903;DHT22;5504;47.312;11.060;2022-08-21T05:18:24;16.40;99.30
10903;DHT22;5504;47.312;11.060;2022-08-21T05:20:49;16.40;99.40
10903;DHT22;5504;47.312;11.060;2022-08-21T05:23:16;16.50;99.80
10903;DHT22;5504;47.312;11.060;2022-08-21T05:25:42;16.50;99.90
10903;DHT22;5504;47.312;11.060;2022-08-21T05:28:09;16.50;99.80
10903;DHT22;5504;47.312;11.060;2022-08-21T05:30:36;16.60;99.90
10903;DHT22;5504;47.312;11.060;2022-08-21T05:33:04;16.60;99.90
10903;DHT22;5504;47.312;11.060;2022-08-21T05:35:31;16.70;99.90
10903;DHT22;5504;47.312;11.060;2022-08-21T05:37:58;16.90;99.90
10903;DHT22;5504;47.312;11.060;2022-08-21T05:40:25;17.10;99.90
10903;DHT22;5504;47.312;11.060;2022-08-21T05:42:52;17.40;99.80
10903;DHT22;5504;47.312;11.060;2022-08-21T05:45:17;17.40;99.30
10903;DHT22;5504;47.312;11.060;2022-08-21T05:47:43;17.50;99.60
10903;DHT22;5504;47.312;11.060;2022-08-21T05:50:09;17.60;99.60
10903;DHT22;5504;47.312;11.060;2022-08-21T05:52:35;17.70;99.50
10903;DHT22;5504;47.312;11.060;2022-08-21T05:55:01;17.80;99.20
10903;DHT22;5504;47.312;11.060;2022-08-21T05:57:26;17.90;98.90
10903;DHT22;5504;47.312;11.060;2022-08-21T05:59:52;18.00;98.90
10903;DHT22;5504;47.312;11.060;2022-08-21T06:02:19;17.80;98.80
10903;DHT22;5504;47.312;11.060;2022-08-21T06:04:46;17.80;98.70
10903;DHT22;5504;47.312;11.060;2022-08-21T06:07:12;17.80;98.50
10903;DHT22;5504;47.312;11.060;2022-08-21T06:09:38;17.90;98.90
10903;DHT22;5504;47.312;11.060;2022-08-21T06:12:09;18.00;99.30
10903;DHT22;5504;47.312;11.060;2022-08-21T06:14:36;18.00;99.00
10903;DHT22;5504;47.312;11.060;2022-08-21T06:17:07;17.90;98.60
10903;DHT22;5504;47.312;11.060;2022-08-21T06:19:34;18.10;98.90
10903;DHT22;5504;47.312;11.060;2022-08-21T06:22:00;18.10;98.90
10903;DHT22;5504;47.312;11.060;2022-08-21T06:24:26;18.10;98.80
10903;DHT22;5504;47.312;11.060;2022-08-21T06:26:52;18.10;99.00
10903;DHT22;5504;47.312;11.060;2022-08-21T06:29:18;18.30;99.00
10903;DHT22;5504;47.312;11.060;2022-08-21T06:31:46;18.50;98.90
10903;DHT22;5504;47.312;11.060;2022-08-21T06:34:12;18.60;99.00
10903;DHT22;5504;47.312;11.060;2022-08-21T06:36:38;18.30;97.70
10903;DHT22;5504;47.312;11.060;2022-08-21T06:39:04;18.20;98.10
10903;DHT22;5504;47.312;11.060;2022-08-21T06:41:30;18.30;97.90
10903;DHT22;5504;47.312;11.060;2022-08-21T06:43:57;18.60;98.50
10903;DHT22;5504;47.312;11.060;2022-08-21T06:46:25;18.80;98.00
10903;DHT22;5504;47.312;11.060;2022-08-21T06:48:51;18.80;97.90
10903;DHT22;5504;47.312;11.060;2022-08-21T06:51:17;18.90;97.50
10903;DHT22;5504;47.312;11.060;2022-08-21T06:53:44;19.10;97.40
10903;DHT22;5504;47.312;11.060;2022-08-21T06:56:09;19.00;97.10
10903;DHT22;5504;47.312;11.060;2022-08-21T06:58:35;19.00;96.50
10903;DHT22;5504;47.312;11.060;2022-08-21T07:01:01;19.10;96.60
10903;DHT22;5504;47.312;11.060;2022-08-21T07:03:29;19.10;96.70
10903;DHT22;5504;47.312;11.060;2022-08-21T07:05:56;19.70;97.90
10903;DHT22;5504;47.312;11.060;2022-08-21T07:08:25;20.60;97.70
10903;DHT22;5504;47.312;11.060;2022-08-21T07:10:53;21.70;95.40
10903;DHT22;5504;47.312;11.060;2022-08-21T07:13:19;22.00;93.00
10903;DHT22;5504;47.312;11.060;2022-08-21T07:15:45;22.10;93.70
10903;DHT22;5504;47.312;11.060;2022-08-21T07:18:11;21.80;92.20
10903;DHT22;5504;47.312;11.060;2022-08-21T07:20:38;21.70;91.00
10903;DHT22;5504;47.312;11.060;2022-08-21T07:23:10;21.80;93.70
10903;DHT22;5504;47.312;11.060;2022-08-21T07:25:37;22.60;93.20
10903;DHT22;5504;47.312;11.060;2022-08-21T07:28:03;22.10;90.40
10903;DHT22;5504;47.312;11.060;2022-08-21T07:30:29;23.30;91.10
10903;DHT22;5504;47.312;11.060;2022-08-21T07:32:55;24.30;90.60
10903;DHT22;5504;47.312;11.060;2022-08-21T07:35:21;24.40;84.40
10903;DHT22;5504;47.312;11.060;2022-08-21T07:37:47;24.50;83.20
10903;DHT22;5504;47.312;11.060;2022-08-21T07:40:13;24.30;82.80
10903;DHT22;5504;47.312;11.060;2022-08-21T07:42:44;23.70;84.30
10903;DHT22;5504;47.312;11.060;2022-08-21T07:45:10;23.40;84.70
10903;DHT22;5504;47.312;11.060;2022-08-21T07:47:36;23.50;84.50
10903;DHT22;5504;47.312;11.060;2022-08-21T07:50:02;23.40;83.30
10903;DHT22;5504;47.312;11.060;2022-08-21T07:52:28;23.00;86.40
10903;DHT22;5504;47.312;11.060;2022-08-21T07:54:54;22.50;90.20
10903;DHT22;5504;47.312;11.060;2022-08-21T07:57:20;22.40;90.10
10903;DHT22;5504;47.312;11.060;2022-08-21T07:59:46;22.20;88.90
10903;DHT22;5504;47.312;11.060;2022-08-21T08:02:22;22.10;89.20
10903;DHT22;5504;47.312;11.060;2022-08-21T08:04:48;21.90;89.60
10903;DHT22;5504;47.312;11.060;2022-08-21T08:07:14;21.50;90.10
10903;DHT22;5504;47.312;11.060;2022-08-21T08:09:39;21.90;91.00
10903;DHT22;5504;47.312;11.060;2022-08-21T08:12:05;22.50;90.20
10903;DHT22;5504;47.312;11.060;2022-08-21T08:14:31;23.30;89.70
10903;DHT22;5504;47.312;11.060;2022-08-21T08:16:57;23.20;86.30
10903;DHT22;5504;47.312;11.060;2022-08-21T08:19:23;22.80;84.60
10903;DHT22;5504;47.312;11.060;2022-08-21T08:21:49;22.70;85.50
10903;DHT22;5504;47.312;11.060;2022-08-21T08:24:14;22.80;87.10
10903;DHT22;5504;47.312;11.060;2022-08-21T08:26:40;22.50;84.10
10903;DHT22;5504;47.312;11.060;2022-08-21T08:29:06;22.90;86.20
10903;DHT22;5504;47.312;11.060;2022-08-21T08:31:31;23.00;85.30
10903;DHT22;5504;47.312;11.060;2022-08-21T08:33:57;22.90;85.00
10903;DHT22;5504;47.312;11.060;2022-08-21T08:36:32;22.90;85.40
10903;DHT22;5504;47.312;11.060;2022-08-21T08:38:59;23.20;86.50
10903;DHT22;5504;47.312;11.060;2022-08-21T08:41:28;23.20;85.20
10903;DHT22;5504;47.312;11.060;2022-08-21T08:44:00;23.40;86.30
10903;DHT22;5504;47.312;11.060;2022-08-21T08:46:41;23.80;88.30
10903;DHT22;5504;47.312;11.060;2022-08-21T08:49:23;23.90;80.40
10903;DHT22;5504;47.312;11.060;2022-08-21T08:52:01;23.70;81.00
10903;DHT22;5504;47.312;11.060;2022-08-21T08:54:35;23.30;81.70
10903;DHT22;5504;47.312;11.060;2022-08-21T08:57:09;23.80;85.00
10903;DHT22;5504;47.312;11.060;2022-08-21T08:59:41;24.60;85.00
10903;DHT22;5504;47.312;11.060;2022-08-21T09:02:08;24.70;78.80
10903;DHT22;5504;47.312;11.060;2022-08-21T09:04:36;24.50;75.40
10903;DHT22;5504;47.312;11.060;2022-08-21T09:16:14;26.70;72.60
10903;DHT22;5504;47.312;11.060;2022-08-21T09:27:20;28.10;74.10
10903;DHT22;5504;47.312;11.060;2022-08-21T09:29:50;28.50;70.70
10903;DHT22;5504;47.312;11.060;2022-08-21T09:32:23;26.40;69.60
10903;DHT22;5504;47.312;11.060;2022-08-21T09:38:06;26.30;72.70
10903;DHT22;5504;47.312;11.060;2022-08-21T09:45:27;27.50;70.60
10903;DHT22;5504;47.312;11.060;2022-08-21T09:47:53;26.70;69.10
10903;DHT22;5504;47.312;11.060;2022-08-21T09:50:27;27.30;72.60
10903;DHT22;5504;47.312;11.060;2022-08-21T09:52:58;26.50;68.60
10903;DHT22;5504;47.312;11.060;2022-08-21T09:55:38;27.00;75.70
10903;DHT22;5504;47.312;11.060;2022-08-21T09:58:33;27.10;68.80
10903;DHT22;5504;47.312;11.060;2022-08-21T10:01:01;27.40;69.60
10903;DHT22;5504;47.312;11.060;2022-08-21T10:03:27;28.20;74.60
10903;DHT22;5504;47.312;11.060;2022-08-21T10:05:57;28.70;70.60
10903;DHT22;5504;47.312;11.060;2022-08-21T10:08:26;29.30;72.60
10903;DHT22;5504;47.312;11.060;2022-08-21T10:10:56;28.00;65.50
10903;DHT22;5504;47.312;11.060;2022-08-21T10:13:39;28.00;69.90
10903;DHT22;5504;47.312;11.060;2022-08-21T10:16:23;28.00;68.90
10903;DHT22;5504;47.312;11.060;2022-08-21T10:26:56;28.10;68.80
10903;DHT22;5504;47.312;11.060;2022-08-21T10:29:42;28.30;66.30
10903;DHT22;5504;47.312;11.060;2022-08-21T10:48:19;27.50;61.90
10903;DHT22;5504;47.312;11.060;2022-08-21T10:50:50;28.80;68.10
10903;DHT22;5504;47.312;11.060;2022-08-21T10:56:25;29.40;63.00
10903;DHT22;5504;47.312;11.060;2022-08-21T11:02:03;29.80;62.10
10903;DHT22;5504;47.312;11.060;2022-08-21T11:04:40;29.70;61.50
10903;DHT22;5504;47.312;11.060;2022-08-21T11:07:39;30.30;60.60
10903;DHT22;5504;47.312;11.060;2022-08-21T11:10:15;30.20;52.70
10903;DHT22;5504;47.312;11.060;2022-08-21T11:12:44;31.00;58.00
10903;DHT22;5504;47.312;11.060;2022-08-21T11:20:38;30.80;57.70
10903;DHT22;5504;47.312;11.060;2022-08-21T11:23:18;31.20;55.00
10903;DHT22;5504;47.312;11.060;2022-08-21T11:25:51;30.30;53.50
10903;DHT22;5504;47.312;11.060;2022-08-21T11:28:28;29.70;49.90
10903;DHT22;5504;47.312;11.060;2022-08-21T11:37:01;30.40;50.80
10903;DHT22;5504;47.312;11.060;2022-08-21T11:39:45;30.40;52.40
10903;DHT22;5504;47.312;11.060;2022-08-21T11:45:02;29.70;48.10
10903;DHT22;5504;47.312;11.060;2022-08-21T11:50:30;29.60;49.50
10903;DHT22;5504;47.312;11.060;2022-08-21T11:53:17;29.00;50.70
10903;DHT22;5504;47.312;11.060;2022-08-21T11:56:04;29.60;48.60
10903;DHT22;5504;47.312;11.060;2022-08-21T11:58:42;30.20;53.50
10903;DHT22;5504;47.312;11.060;2022-08-21T12:01:18;31.10;52.50
10903;DHT22;5504;47.312;11.060;2022-08-21T12:04:04;31.50;51.20
10903;DHT22;5504;47.312;11.060;2022-08-21T12:06:34;30.60;50.60
10903;DHT22;5504;47.312;11.060;2022-08-21T12:09:30;30.40;50.00
10903;DHT22;5504;47.312;11.060;2022-08-21T12:12:12;30.10;53.40
10903;DHT22;5504;47.312;11.060;2022-08-21T12:14:46;30.40;53.50
10903;DHT22;5504;47.312;11.060;2022-08-21T12:17:24;30.40;51.90
10903;DHT22;5504;47.312;11.060;2022-08-21T12:26:09;29.70;53.40
10903;DHT22;5504;47.312;11.060;2022-08-21T12:28:28;28.90;49.80
10903;DHT22;5504;47.312;11.060;2022-08-21T12:30:55;28.80;49.10
10903;DHT22;5504;47.312;11.060;2022-08-21T12:33:34;28.90;51.60
10903;DHT22;5504;47.312;11.060;2022-08-21T12:36:22;29.80;54.00
10903;DHT22;5504;47.312;11.060;2022-08-21T12:41:41;30.80;52.60
10903;DHT22;5504;47.312;11.060;2022-08-21T12:44:12;30.00;49.60
10903;DHT22;5504;47.312;11.060;2022-08-21T12:49:27;29.90;53.30
10903;DHT22;5504;47.312;11.060;2022-08-21T12:52:11;30.40;52.50
10903;DHT22;5504;47.312;11.060;2022-08-21T12:54:41;30.90;55.00
10903;DHT22;5504;47.312;11.060;2022-08-21T12:57:09;30.90;49.30
10903;DHT22;5504;47.312;11.060;2022-08-21T12:59:42;30.50;49.60
10903;DHT22;5504;47.312;11.060;2022-08-21T13:02:20;29.90;50.50
10903;DHT22;5504;47.312;11.060;2022-08-21T13:04:47;29.60;49.10
10903;DHT22;5504;47.312;11.060;2022-08-21T13:07:19;30.10;53.10
10903;DHT22;5504;47.312;11.060;2022-08-21T13:09:51;30.90;53.70
10903;DHT22;5504;47.312;11.060;2022-08-21T13:12:20;30.50;48.60
10903;DHT22;5504;47.312;11.060;2022-08-21T13:14:48;29.60;50.80
10903;DHT22;5504;47.312;11.060;2022-08-21T13:17:23;29.10;50.80
10903;DHT22;5504;47.312;11.060;2022-08-21T13:19:54;28.80;49.50
10903;DHT22;5504;47.312;11.060;2022-08-21T13:22:20;28.80;52.00
10903;DHT22;5504;47.312;11.060;2022-08-21T13:24:47;29.70;52.30
10903;DHT22;5504;47.312;11.060;2022-08-21T13:27:27;29.30;47.90
10903;DHT22;5504;47.312;11.060;2022-08-21T13:30:17;29.00;52.30
10903;DHT22;5504;47.312;11.060;2022-08-21T13:32:46;29.20;49.30
10903;DHT22;5504;47.312;11.060;2022-08-21T13:35:24;28.80;49.30
10903;DHT22;5504;47.312;11.060;2022-08-21T13:37:51;28.70;52.60
10903;DHT22;5504;47.312;11.060;2022-08-21T13:40:24;28.90;49.60
10903;DHT22;5504;47.312;11.060;2022-08-21T13:42:50;29.60;51.30
10903;DHT22;5504;47.312;11.060;2022-08-21T13:45:22;28.10;48.80
10903;DHT22;5504;47.312;11.060;2022-08-21T13:47:48;28.20;52.80
10903;DHT22;5504;47.312;11.060;2022-08-21T13:50:15;27.90;51.20
10903;DHT22;5504;47.312;11.060;2022-08-21T13:53:31;28.00;52.20
10903;DHT22;5504;47.312;11.060;2022-08-21T13:55:55;28.50;52.80
10903;DHT22;5504;47.312;11.060;2022-08-21T13:58:47;29.20;53.70
10903;DHT22;5504;47.312;11.060;2022-08-21T14:01:19;29.70;53.20
10903;DHT22;5504;47.312;11.060;2022-08-21T14:03:49;29.80;50.90
10903;DHT22;5504;47.312;11.060;2022-08-21T14:06:21;29.50;51.20
10903;DHT22;5504;47.312;11.060;2022-08-21T14:09:41;29.00;49.80
10903;DHT22;5504;47.312;11.060;2022-08-21T14:11:48;29.10;52.40
10903;DHT22;5504;47.312;11.060;2022-08-21T14:14:32;28.80;51.50
10903;DHT22;5504;47.312;11.060;2022-08-21T14:17:04;28.80;53.40
10903;DHT22;5504;47.312;11.060;2022-08-21T14:27:29;28.10;50.60
10903;DHT22;5504;47.312;11.060;2022-08-21T14:30:09;27.90;52.50
10903;DHT22;5504;47.312;11.060;2022-08-21T14:32:40;28.30;51.40
10903;DHT22;5504;47.312;11.060;2022-08-21T14:35:06;28.30;49.20
10903;DHT22;5504;47.312;11.060;2022-08-21T14:37:32;27.80;49.40
10903;DHT22;5504;47.312;11.060;2022-08-21T14:39:58;27.40;51.20
10903;DHT22;5504;47.312;11.060;2022-08-21T14:42:24;27.50;49.80
10903;DHT22;5504;47.312;11.060;2022-08-21T14:44:50;27.90;52.70
10903;DHT22;5504;47.312;11.060;2022-08-21T14:47:16;28.30;52.80
10903;DHT22;5504;47.312;11.060;2022-08-21T14:49:42;28.30;49.40
10903;DHT22;5504;47.312;11.060;2022-08-21T14:52:08;28.10;49.40
10903;DHT22;5504;47.312;11.060;2022-08-21T14:54:35;27.90;49.60
10903;DHT22;5504;47.312;11.060;2022-08-21T14:57:05;27.70;49.70
10903;DHT22;5504;47.312;11.060;2022-08-21T14:59:31;27.00;49.40
10903;DHT22;5504;47.312;11.060;2022-08-21T15:01:58;27.00;49.90
10903;DHT22;5504;47.312;11.060;2022-08-21T15:04:24;27.10;50.10
10903;DHT22;5504;47.312;11.060;2022-08-21T15:06:50;27.80;53.00
10903;DHT22;5504;47.312;11.060;2022-08-21T15:09:16;28.10;51.60
10903;DHT22;5504;47.312;11.060;2022-08-21T15:11:42;28.20;51.00
10903;DHT22;5504;47.312;11.060;2022-08-21T15:14:11;28.30;53.70
10903;DHT22;5504;47.312;11.060;2022-08-21T15:16:40;28.50;53.50
10903;DHT22;5504;47.312;11.060;2022-08-21T15:19:05;28.40;51.10
10903;DHT22;5504;47.312;11.060;2022-08-21T15:21:31;28.20;49.80
10903;DHT22;5504;47.312;11.060;2022-08-21T15:23:57;28.10;49.80
10903;DHT22;5504;47.312;11.060;2022-08-21T15:26:23;28.00;50.60
10903;DHT22;5504;47.312;11.060;2022-08-21T15:28:49;27.80;50.10
10903;DHT22;5504;47.312;11.060;2022-08-21T15:31:15;27.80;51.10
10903;DHT22;5504;47.312;11.060;2022-08-21T15:33:40;27.60;50.30
10903;DHT22;5504;47.312;11.060;2022-08-21T15:36:06;27.70;51.80
10903;DHT22;5504;47.312;11.060;2022-08-21T15:38:32;27.50;49.40
10903;DHT22;5504;47.312;11.060;2022-08-21T15:40:58;27.20;49.00
10903;DHT22;5504;47.312;11.060;2022-08-21T15:45:49;27.50;52.50
10903;DHT22;5504;47.312;11.060;2022-08-21T15:48:15;27.50;51.40
10903;DHT22;5504;47.312;11.060;2022-08-21T15:50:50;27.50;52.50
10903;DHT22;5504;47.312;11.060;2022-08-21T15:53:16;27.30;51.70
10903;DHT22;5504;47.312;11.060;2022-08-21T15:55:42;27.30;51.40
10903;DHT22;5504;47.312;11.060;2022-08-21T15:58:15;27.40;51.90
10903;DHT22;5504;47.312;11.060;2022-08-21T16:00:42;27.20;52.30
10903;DHT22;5504;47.312;11.060;2022-08-21T16:03:12;27.10;51.60
10903;DHT22;5504;47.312;11.060;2022-08-21T16:05:41;26.90;51.40
10903;DHT22;5504;47.312;11.060;2022-08-21T16:08:08;26.90;50.90
10903;DHT22;5504;47.312;11.060;2022-08-21T16:10:35;26.80;51.30
10903;DHT22;5504;47.312;11.060;2022-08-21T16:13:03;26.70;52.30
10903;DHT22;5504;47.312;11.060;2022-08-21T16:15:30;26.70;53.00
10903;DHT22;5504;47.312;11.060;2022-08-21T16:17:56;26.70;52.80
10903;DHT22;5504;47.312;11.060;2022-08-21T16:20:27;26.40;52.30
10903;DHT22;5504;47.312;11.060;2022-08-21T16:22:55;26.50;53.70
10903;DHT22;5504;47.312;11.060;2022-08-21T16:25:21;26.70;54.70
10903;DHT22;5504;47.312;11.060;2022-08-21T16:27:55;26.70;54.70
10903;DHT22;5504;47.312;11.060;2022-08-21T16:30:22;26.70;53.50
10903;DHT22;5504;47.312;11.060;2022-08-21T16:32:48;26.70;55.70
10903;DHT22;5504;47.312;11.060;2022-08-21T16:35:16;26.60;54.10
10903;DHT22;5504;47.312;11.060;2022-08-21T16:37:43;26.50;54.80
10903;DHT22;5504;47.312;11.060;2022-08-21T16:40:10;26.40;55.70
10903;DHT22;5504;47.312;11.060;2022-08-21T16:42:38;26.20;54.40
10903;DHT22;5504;47.312;11.060;2022-08-21T16:45:10;26.00;56.50
10903;DHT22;5504;47.312;11.060;2022-08-21T16:47:36;25.80;57.10
10903;DHT22;5504;47.312;11.060;2022-08-21T16:50:02;25.50;53.30
10903;DHT22;5504;47.312;11.060;2022-08-21T16:52:29;25.30;53.80
10903;DHT22;5504;47.312;11.060;2022-08-21T16:54:55;25.20;55.30
10903;DHT22;5504;47.312;11.060;2022-08-21T16:57:21;25.10;56.80
10903;DHT22;5504;47.312;11.060;2022-08-21T16:59:46;25.00;59.00
10903;DHT22;5504;47.312;11.060;2022-08-21T17:02:23;24.80;62.40
10903;DHT22;5504;47.312;11.060;2022-08-21T17:04:50;24.50;58.60
10903;DHT22;5504;47.312;11.060;2022-08-21T17:07:16;24.40;61.30
10903;DHT22;5504;47.312;11.060;2022-08-21T17:09:41;24.50;62.50
10903;DHT22;5504;47.312;11.060;2022-08-21T17:12:07;24.40;62.20
10903;DHT22;5504;47.312;11.060;2022-08-21T17:14:34;24.30;59.30
10903;DHT22;5504;47.312;11.060;2022-08-21T17:17:03;24.30;58.80